Time;durP1;ratioP1;P1;durP2;ratioP2;P2;SDS_P1;SDS_P2;PMS_P1;PMS_P2;Temp;Humidity;BMP_temperature;BMP_pressure;BME280_temperature;BME280_humidity;BME280_pressure;Samples;Min_cycle;Max_cycle;Signal;HPM_P1;HPM_P2
2021/04/15 00:01:21;;;;;;;13.95;6.25;;;;;;;-0.83;91.19;103058.66;5065410;28;20411;-75
2021/04/15 00:03:47;;;;;;;13.75;6.63;;;;;;;-0.84;91.10;103062.97;5057713;28;20051;-79
2021/04/15 00:06:22;;;;;;;14.02;7.18;;;;;;;-0.89;91.42;103056.16;5052699;28;20041;-79
2021/04/15 00:08:48;;;;;;;9.98;6.53;;;;;;;-0.98;91.95;103057.09;5072336;28;20047;-77
2021/04/15 00:11:19;;;;;;;18.05;7.38;;;;;;;-0.98;91.69;103059.69;5049053;28;20041;-79
2021/04/15 00:13:48;;;;;;;17.48;7.28;;;;;;;-1.04;92.08;103055.44;5053300;28;20036;-76
2021/04/15 00:16:14;;;;;;;17.77;8.20;;;;;;;-1.09;92.70;103064.06;5044735;28;20854;-78
2021/04/15 00:18:41;;;;;;;13.07;7.68;;;;;;;-1.10;92.99;103058.09;5024909;28;20033;-79
2021/04/15 00:21:08;;;;;;;20.13;8.50;;;;;;;-1.06;93.05;103058.91;5049791;28;20084;-74
2021/04/15 00:23:34;;;;;;;16.88;7.43;;;;;;;-1.15;93.08;103059.84;5069434;28;20040;-77
2021/04/15 00:26:04;;;;;;;18.83;8.60;;;;;;;-1.18;93.21;103065.03;5068224;28;20087;-78
2021/04/15 00:28:29;;;;;;;19.67;7.18;;;;;;;-1.21;92.92;103057.31;5036596;28;20063;-77
2021/04/15 00:30:55;;;;;;;15.85;6.88;;;;;;;-1.21;92.72;103054.75;5033856;28;20498;-72
2021/04/15 00:33:21;;;;;;;16.05;7.38;;;;;;;-1.22;92.42;103051.31;5026367;28;20041;-77
2021/04/15 00:35:47;;;;;;;15.40;7.63;;;;;;;-1.21;92.29;103052.19;5039801;28;20052;-79
2021/04/15 00:38:15;;;;;;;14.35;6.75;;;;;;;-1.21;92.53;103057.31;5007793;28;20108;-78
2021/04/15 00:40:42;;;;;;;10.27;6.53;;;;;;;-1.20;92.82;103052.16;5052635;28;20044;-77
2021/04/15 00:43:09;;;;;;;15.05;7.80;;;;;;;-1.21;92.59;103057.31;5055644;28;20053;-75
2021/04/15 00:45:37;;;;;;;14.35;6.72;;;;;;;-1.21;92.72;103053.03;5038135;28;20128;-78
2021/04/15 00:48:08;;;;;;;17.63;6.43;;;;;;;-1.20;92.60;103054.75;5061210;28;20086;-76
2021/04/15 00:50:57;;;;;;;20.25;6.78;;;;;;;-1.21;92.85;103058.16;5070313;28;20127;-78
2021/04/15 00:53:32;;;;;;;11.75;6.68;;;;;;;-1.22;92.72;103055.63;5053370;28;20095;-78
2021/04/15 00:55:58;;;;;;;17.55;6.10;;;;;;;-1.25;93.00;103051.34;5037800;28;20056;-78
2021/04/15 00:58:26;;;;;;;12.52;5.90;;;;;;;-1.25;92.45;103055.66;5078037;28;20115;-76
2021/04/15 01:00:52;;;;;;;10.45;6.43;;;;;;;-1.26;92.17;103052.22;5073062;28;20047;-78
2021/04/15 01:03:18;;;;;;;19.63;7.05;;;;;;;-1.28;92.60;103055.66;5062361;28;20136;-77
2021/04/15 01:05:46;;;;;;;14.50;6.65;;;;;;;-1.33;92.13;103063.44;5036735;28;20914;-77
2021/04/15 01:08:13;;;;;;;14.98;6.45;;;;;;;-1.28;92.28;103055.66;5057646;28;20063;-78
2021/04/15 01:10:42;;;;;;;17.67;6.25;;;;;;;-1.36;91.93;103053.16;5036241;28;20068;-77
2021/04/15 01:13:47;;;;;;;12.63;6.25;;;;;;;-1.34;91.94;103064.28;5040224;28;20650;-77
2021/04/15 01:16:28;;;;;;;11.02;5.93;;;;;;;-1.33;91.87;103060.88;5035151;28;20041;-80
2021/04/15 01:18:57;;;;;;;10.23;5.93;;;;;;;-1.38;91.48;103055.75;5057366;28;20044;-78
2021/04/15 01:21:53;;;;;;;12.98;5.75;;;;;;;-1.37;91.74;103056.63;5051607;28;20438;-76
2021/04/15 01:24:29;;;;;;;9.88;5.97;;;;;;;-1.39;91.83;103056.63;5032532;28;20037;-78
2021/04/15 01:27:13;;;;;;;10.32;5.72;;;;;;;-1.39;91.59;103051.47;5065646;28;20077;-77
2021/04/15 01:30:24;;;;;;;15.38;6.55;;;;;;;-1.38;91.39;103058.31;5030503;28;20059;-76
2021/04/15 01:32:58;;;;;;;13.18;5.97;;;;;;;-1.42;91.96;103058.38;5015824;28;20189;-78
2021/04/15 01:35:32;;;;;;;11.10;5.88;;;;;;;-1.40;91.61;103059.22;5051875;28;20123;-75
2021/04/15 01:38:11;;;;;;;18.02;6.15;;;;;;;-1.41;91.43;103057.50;5036525;28;20032;-80
2021/04/15 01:40:46;;;;;;;13.82;5.72;;;;;;;-1.39;91.19;103059.19;5042723;28;20037;-80
2021/04/15 01:43:22;;;;;;;11.27;6.45;;;;;;;-1.42;91.33;103061.78;5050794;28;20044;-77
2021/04/15 01:45:51;;;;;;;13.25;5.90;;;;;;;-1.43;91.18;103054.06;5048813;28;20065;-77
2021/04/15 01:48:48;;;;;;;11.60;6.05;;;;;;;-1.42;91.19;103063.50;5023998;28;20052;-78
2021/04/15 01:51:28;;;;;;;11.65;6.47;;;;;;;-1.48;90.94;103058.41;5044329;28;20041;-78
2021/04/15 01:54:13;;;;;;;14.30;5.65;;;;;;;-1.49;90.92;103054.13;5036092;28;20037;-77
2021/04/15 01:56:46;;;;;;;9.65;5.57;;;;;;;-1.50;90.91;103063.56;5018916;28;20118;-78
2021/04/15 01:59:17;;;;;;;14.63;6.95;;;;;;;-1.52;91.16;103062.75;5054331;28;20059;-76
2021/04/15 02:01:52;;;;;;;16.15;7.55;;;;;;;-1.53;91.22;103063.59;5051385;28;20187;-80
2021/04/15 02:04:23;;;;;;;11.55;6.50;;;;;;;-1.62;91.11;103056.81;5070999;28;20037;-76
2021/04/15 02:06:54;;;;;;;10.73;6.18;;;;;;;-1.62;91.31;103056.81;5069841;28;20037;-79
2021/04/15 02:09:22;;;;;;;15.02;6.93;;;;;;;-1.61;91.64;103062.81;5039316;28;20041;-79
2021/04/15 02:12:00;;;;;;;15.00;6.93;;;;;;;-1.59;91.74;103071.38;5035231;28;20052;-76
2021/04/15 02:14:29;;;;;;;11.38;5.72;;;;;;;-1.58;91.11;103058.50;5052730;28;20055;-77
2021/04/15 02:16:59;;;;;;;12.05;6.85;;;;;;;-1.61;91.27;103063.66;5017768;28;20044;-76
2021/04/15 02:19:47;;;;;;;17.58;7.80;;;;;;;-1.67;92.21;103068.84;5077136;28;20043;-79
2021/04/15 02:22:47;;;;;;;15.13;6.35;;;;;;;-1.65;92.36;103068.84;5068343;28;20057;-78
2021/04/15 02:25:37;;;;;;;19.20;6.80;;;;;;;-1.73;92.05;103063.75;5011097;28;20045;-77
2021/04/15 02:28:27;;;;;;;12.98;6.47;;;;;;;-1.69;91.99;103065.44;5056926;28;20048;-77
2021/04/15 02:31:08;;;;;;;15.55;6.32;;;;;;;-1.73;91.68;103062.88;5063187;28;20375;-78
2021/04/15 02:33:43;;;;;;;15.40;6.05;;;;;;;-1.74;91.57;103061.19;5061603;28;20506;-77
2021/04/15 02:36:10;;;;;;;15.10;6.40;;;;;;;-1.76;91.45;103058.63;5058259;28;20102;-78
2021/04/15 02:38:50;;;;;;;14.77;5.95;;;;;;;-1.77;91.35;103067.22;5034748;28;20041;-79
2021/04/15 02:41:22;;;;;;;9.85;6.35;;;;;;;-1.80;91.38;103073.22;5047143;28;20060;-78
2021/04/15 02:44:06;;;;;;;12.45;6.20;;;;;;;-1.84;91.25;103066.38;5064981;28;20060;-78
2021/04/15 02:46:45;;;;;;;9.75;5.78;;;;;;;-1.86;91.09;103070.69;5031437;28;20041;-75
2021/04/15 02:49:14;;;;;;;12.43;6.07;;;;;;;-1.89;91.00;103067.28;5050690;28;20763;-75
2021/04/15 02:51:47;;;;;;;11.27;5.82;;;;;;;-1.89;91.09;103069.84;5016801;28;20052;-76
2021/04/15 02:54:20;;;;;;;15.68;5.65;;;;;;;-1.91;90.93;103069.00;5037857;28;20040;-80
2021/04/15 02:57:08;;;;;;;9.73;6.05;;;;;;;-1.93;90.81;103074.16;5053005;28;20449;-77
2021/04/15 03:00:02;;;;;;;11.68;6.03;;;;;;;-1.96;90.84;103072.47;5036420;28;20127;-76
2021/04/15 03:02:31;;;;;;;12.02;5.80;;;;;;;-1.90;90.84;103075.84;5034919;28;20301;-76
2021/04/15 03:05:01;;;;;;;15.38;5.95;;;;;;;-1.96;90.40;103080.19;5019850;28;20120;-76
2021/04/15 03:07:32;;;;;;;11.93;5.75;;;;;;;-1.96;90.65;103082.75;5034907;28;20494;-78
2021/04/15 03:10:00;;;;;;;11.48;5.63;;;;;;;-1.97;90.56;103080.19;5046369;28;20032;-78
2021/04/15 03:12:29;;;;;;;18.23;6.88;;;;;;;-1.99;90.47;103079.34;5054144;28;20057;-76
2021/04/15 03:15:02;;;;;;;12.75;5.80;;;;;;;-1.96;90.06;103085.31;5053500;28;20135;-74
2021/04/15 03:17:30;;;;;;;13.60;5.65;;;;;;;-1.99;90.36;103076.75;5064600;28;20048;-79
2021/04/15 03:19:59;;;;;;;14.60;6.07;;;;;;;-2.02;90.19;103077.63;5037258;28;20044;-79
2021/04/15 03:22:47;;;;;;;13.25;5.72;;;;;;;-2.01;90.41;103076.78;5016706;28;20045;-78
2021/04/15 03:25:13;;;;;;;9.82;5.22;;;;;;;-2.01;90.27;103079.34;5032281;28;20045;-75
2021/04/15 03:27:45;;;;;;;13.70;5.60;;;;;;;-2.03;90.38;103077.66;5056335;28;20138;-75
2021/04/15 03:30:16;;;;;;;11.90;6.07;;;;;;;-2.05;90.40;103087.94;5060817;28;21050;-75
2021/04/15 03:32:41;;;;;;;18.15;6.70;;;;;;;-2.07;90.51;103081.06;5034927;28;20387;-77
2021/04/15 03:35:15;;;;;;;13.57;6.32;;;;;;;-2.09;90.55;103078.53;5053862;28;20057;-79
2021/04/15 03:37:57;;;;;;;11.15;5.45;;;;;;;-2.09;90.40;103080.22;5068291;28;20137;-79
2021/04/15 03:40:26;;;;;;;10.40;5.70;;;;;;;-2.05;90.21;103085.38;5030224;28;20072;-78
2021/04/15 03:42:55;;;;;;;12.73;5.53;;;;;;;-2.08;90.30;103079.38;5053657;28;20064;-78
2021/04/15 03:45:46;;;;;;;12.43;6.68;;;;;;;-2.06;90.17;103086.22;5016500;28;20040;-75
2021/04/15 03:48:26;;;;;;;15.50;5.82;;;;;;;-2.10;90.56;103086.25;5040648;28;20064;-75
2021/04/15 03:51:12;;;;;;;11.68;5.13;;;;;;;-2.08;90.28;103090.53;5045760;28;21059;-77
2021/04/15 03:53:42;;;;;;;11.27;6.07;;;;;;;-2.06;90.54;103083.66;5023662;28;20044;-79
2021/04/15 03:56:27;;;;;;;15.68;5.47;;;;;;;-2.04;90.52;103081.91;5059524;28;20072;-79
2021/04/15 03:58:58;;;;;;;11.48;5.43;;;;;;;-2.02;90.18;103081.91;5042715;28;20992;-79
2021/04/15 04:01:27;;;;;;;10.98;5.50;;;;;;;-2.02;90.04;103082.75;5026022;28;20044;-79
2021/04/15 04:04:07;;;;;;;14.20;5.85;;;;;;;-2.03;90.45;103083.63;5054239;28;20041;-77
2021/04/15 04:06:41;;;;;;;15.82;5.90;;;;;;;-2.04;90.95;103084.50;5060711;28;20052;-77
2021/04/15 04:09:22;;;;;;;12.48;5.63;;;;;;;-2.06;91.55;103083.66;5041583;28;20521;-77
2021/04/15 04:11:51;;;;;;;12.55;5.88;;;;;;;-2.04;91.30;103086.22;5056206;28;20049;-78
2021/04/15 04:14:57;;;;;;;14.70;6.00;;;;;;;-2.04;91.06;103089.63;5025370;28;20045;-80
2021/04/15 04:17:35;;;;;;;15.40;6.38;;;;;;;-2.02;91.11;103097.34;4976538;28;20058;-79
2021/04/15 04:20:01;;;;;;;11.15;5.90;;;;;;;-1.99;91.24;103092.19;5010384;28;20050;-78
2021/04/15 04:22:56;;;;;;;11.55;6.07;;;;;;;-1.94;91.25;103097.31;5028563;28;20633;-78
2021/04/15 04:25:34;;;;;;;10.73;5.72;;;;;;;-1.96;91.67;103094.72;5021633;28;20052;-79
2021/04/15 04:28:18;;;;;;;15.68;6.20;;;;;;;-1.97;92.30;103095.63;5049144;28;20039;-78
2021/04/15 04:30:49;;;;;;;11.55;6.30;;;;;;;-1.99;92.29;103110.19;5019967;28;20466;-78
2021/04/15 04:33:17;;;;;;;16.60;6.45;;;;;;;-2.04;92.32;103106.78;5019492;28;20045;-77
2021/04/15 04:35:47;;;;;;;15.93;6.43;;;;;;;-2.07;92.61;103101.66;5055244;28;20041;-78
2021/04/15 04:38:17;;;;;;;14.93;6.18;;;;;;;-2.05;92.27;103110.25;5026166;28;20495;-76
2021/04/15 04:40:47;;;;;;;9.02;5.35;;;;;;;-2.04;92.36;103099.06;5070816;28;20068;-76
2021/04/15 04:43:18;;;;;;;14.00;6.40;;;;;;;-1.99;91.59;103112.78;5025873;28;20135;-77
2021/04/15 04:45:45;;;;;;;16.88;5.88;;;;;;;-1.96;91.95;103113.63;5070222;28;20057;-80
2021/04/15 04:48:29;;;;;;;14.43;5.75;;;;;;;-1.95;91.64;103117.03;5074112;28;20041;-78
2021/04/15 04:51:05;;;;;;;10.82;5.53;;;;;;;-2.00;91.71;103123.91;5033537;28;20041;-81
2021/04/15 04:53:34;;;;;;;14.30;6.25;;;;;;;-2.02;91.91;103121.34;5049895;28;20041;-77
2021/04/15 04:56:38;;;;;;;17.38;6.43;;;;;;;-1.99;92.38;103125.63;5041676;28;20041;-75
2021/04/15 04:59:12;;;;;;;14.63;6.07;;;;;;;-2.01;92.48;103128.22;5037328;28;21159;-76
2021/04/15 05:01:38;;;;;;;14.40;6.18;;;;;;;-1.91;92.95;103129.03;5036078;28;20041;-78
2021/04/15 05:04:04;;;;;;;14.70;5.72;;;;;;;-1.90;92.51;103127.28;5083670;28;20658;-78
2021/04/15 05:06:32;;;;;;;13.57;6.40;;;;;;;-1.87;92.43;103127.28;5054334;28;20048;-77
2021/04/15 05:09:13;;;;;;;17.52;7.03;;;;;;;-1.77;92.80;103128.97;5033936;28;20063;-78
2021/04/15 05:11:45;;;;;;;12.90;6.25;;;;;;;-1.82;92.92;103128.13;5051078;28;20049;-74
2021/04/15 05:14:14;;;;;;;16.67;7.05;;;;;;;-1.68;93.03;103133.19;5067033;28;20045;-79
2021/04/15 05:16:54;;;;;;;13.52;7.10;;;;;;;-1.49;92.95;103145.06;5037781;28;20087;-77
2021/04/15 05:19:20;;;;;;;18.85;6.53;;;;;;;-1.42;92.32;103139.03;5054389;28;20051;-77
2021/04/15 05:21:48;;;;;;;16.67;6.65;;;;;;;-1.44;92.19;103140.75;5021111;28;20040;-78
2021/04/15 05:24:49;;;;;;;17.67;7.15;;;;;;;-1.37;92.33;103139.00;5017529;28;20542;-77
2021/04/15 05:27:20;;;;;;;15.07;6.57;;;;;;;-1.31;92.28;103144.09;5038702;28;20048;-75
2021/04/15 05:29:47;;;;;;;11.38;5.78;;;;;;;-1.20;92.37;103152.59;5044533;28;20063;-74
2021/04/15 05:32:16;;;;;;;16.20;6.78;;;;;;;-1.16;92.11;103144.88;5015809;28;20083;-77
2021/04/15 05:34:46;;;;;;;13.20;6.70;;;;;;;-1.00;91.58;103155.03;5047814;28;20043;-77
2021/04/15 05:37:21;;;;;;;14.68;6.20;;;;;;;-0.92;91.46;103152.41;5040425;28;20044;-77
2021/04/15 05:39:48;;;;;;;16.20;6.63;;;;;;;-0.74;91.09;103160.81;5042996;28;20080;-76
2021/04/15 05:42:40;;;;;;;15.10;6.80;;;;;;;-0.54;90.59;103158.06;5064502;28;20056;-76
2021/04/15 05:45:15;;;;;;;14.90;6.82;;;;;;;-0.44;90.06;103159.66;5047672;28;20847;-76
2021/04/15 05:47:46;;;;;;;16.90;6.95;;;;;;;-0.28;89.50;103165.53;5048020;28;20045;-76
2021/04/15 05:50:24;;;;;;;13.93;6.80;;;;;;;-0.14;89.23;103160.22;5047112;28;20040;-77
2021/04/15 05:53:07;;;;;;;19.23;7.80;;;;;;;-0.02;89.13;103160.91;5046364;28;20040;-76
2021/04/15 05:55:44;;;;;;;15.20;7.70;;;;;;;0.12;89.33;103158.16;5048525;28;20032;-76
2021/04/15 05:58:43;;;;;;;14.25;7.75;;;;;;;0.28;89.44;103163.94;5049540;28;20407;-78
2021/04/15 06:01:23;;;;;;;13.48;8.07;;;;;;;0.51;87.93;103166.25;5009330;28;20041;-75
2021/04/15 06:04:05;;;;;;;15.85;8.45;;;;;;;0.69;87.62;103165.09;5075051;28;20068;-77
2021/04/15 06:06:38;;;;;;;13.07;7.38;;;;;;;0.84;87.50;103163.16;5048439;28;20051;-77
2021/04/15 06:09:05;;;;;;;13.98;8.00;;;;;;;0.97;86.89;103167.25;5045239;28;20132;-74
2021/04/15 06:12:12;;;;;;;18.50;7.68;;;;;;;1.13;87.01;103163.56;4996537;28;20033;-76
2021/04/15 06:14:46;;;;;;;15.30;8.02;;;;;;;1.29;86.04;103165.88;5023560;28;20040;-77
2021/04/15 06:17:26;;;;;;;17.75;7.57;;;;;;;1.47;84.10;103177.59;5046536;28;20041;-75
2021/04/15 06:20:48;;;;;;;16.75;8.05;;;;;;;1.61;84.44;103182.53;5060934;28;20045;-75
2021/04/15 06:23:25;;;;;;;19.90;7.90;;;;;;;1.76;84.26;103187.44;4986241;28;20050;-78
2021/04/15 06:25:52;;;;;;;19.75;7.78;;;;;;;1.87;84.49;103184.63;5033443;28;20132;-76
2021/04/15 06:28:41;;;;;;;17.92;7.80;;;;;;;1.99;82.58;103179.19;5063600;28;20048;-77
2021/04/15 06:31:27;;;;;;;25.73;8.40;;;;;;;2.03;82.91;103178.25;5029050;28;20053;-77
2021/04/15 06:33:56;;;;;;;15.98;7.45;;;;;;;2.16;82.09;103176.25;5046510;28;20087;-76
2021/04/15 06:36:29;;;;;;;15.93;7.50;;;;;;;2.31;81.54;103182.84;5026999;28;20065;-76
2021/04/15 06:39:00;;;;;;;17.02;7.60;;;;;;;2.36;81.46;103183.63;5044027;28;20040;-75
2021/04/15 06:41:29;;;;;;;18.65;7.60;;;;;;;2.45;81.66;103185.13;5045337;28;20074;-75
2021/04/15 06:44:04;;;;;;;15.23;7.32;;;;;;;2.58;80.64;103183.13;5062252;28;20048;-76
2021/04/15 06:47:04;;;;;;;14.32;6.75;;;;;;;2.65;79.28;103177.75;5046130;28;20064;-76
2021/04/15 06:50:11;;;;;;;12.30;6.30;;;;;;;2.88;78.73;103189.34;5015632;28;20048;-77
2021/04/15 06:52:53;;;;;;;12.73;6.40;;;;;;;3.06;79.31;103180.28;5040507;28;20120;-75
2021/04/15 06:55:30;;;;;;;14.27;5.95;;;;;;;3.26;79.53;103182.38;5045106;28;20052;-76
2021/04/15 06:58:26;;;;;;;14.18;5.70;;;;;;;3.35;76.09;103182.13;4995339;28;20517;-76
2021/04/15 07:01:10;;;;;;;14.27;5.00;;;;;;;3.46;76.62;103187.03;5026904;28;20274;-75
2021/04/15 07:03:41;;;;;;;10.15;5.53;;;;;;;3.57;76.44;103178.97;5046552;28;20098;-76
2021/04/15 07:06:31;;;;;;;9.13;4.60;;;;;;;3.61;75.51;103180.59;5062273;28;20048;-76
2021/04/15 07:09:30;;;;;;;9.05;5.20;;;;;;;3.72;75.95;103181.16;5044699;28;20049;-77
2021/04/15 07:12:27;;;;;;;10.30;4.80;;;;;;;3.84;75.73;103182.53;5007473;28;20116;-75
2021/04/15 07:15:29;;;;;;;8.38;4.97;;;;;;;4.12;76.55;103176.56;5045075;28;20522;-77
2021/04/15 07:18:18;;;;;;;10.40;4.77;;;;;;;4.23;73.21;103174.50;5018774;28;20064;-76
2021/04/15 07:21:21;;;;;;;11.50;5.43;;;;;;;4.38;74.61;103171.44;5036409;28;20162;-76
2021/04/15 07:24:11;;;;;;;18.17;5.05;;;;;;;4.54;73.37;103176.16;5045113;28;20049;-77
2021/04/15 07:26:54;;;;;;;11.40;4.00;;;;;;;4.67;73.42;103167.94;5048368;28;20036;-78
2021/04/15 07:29:29;;;;;;;11.63;4.07;;;;;;;4.79;73.69;103181.47;5028480;28;20044;-76
2021/04/15 07:32:31;;;;;;;10.85;3.85;;;;;;;4.72;70.72;103183.38;5047976;28;20056;-74
2021/04/15 07:35:22;;;;;;;10.13;4.10;;;;;;;4.79;71.70;103181.47;5027276;28;20083;-76
2021/04/15 07:38:09;;;;;;;9.85;3.88;;;;;;;4.99;71.32;103180.78;5044886;28;20049;-78
2021/04/15 07:41:11;;;;;;;6.97;3.70;;;;;;;5.00;69.78;103185.09;5059916;28;20054;-77
2021/04/15 07:43:53;;;;;;;6.93;3.80;;;;;;;5.24;70.28;103183.44;5016068;28;20033;-77
2021/04/15 07:46:34;;;;;;;5.60;3.25;;;;;;;5.52;70.05;103185.94;5044583;28;20037;-75
2021/04/15 07:49:36;;;;;;;7.28;4.13;;;;;;;5.75;69.54;103186.88;5041631;28;20187;-77
2021/04/15 07:52:37;;;;;;;8.67;3.50;;;;;;;5.70;69.69;103189.63;5039016;28;20076;-77
2021/04/15 07:55:28;;;;;;;10.10;4.00;;;;;;;5.99;70.20;103187.75;5046274;28;20102;-76
2021/04/15 07:58:11;;;;;;;5.47;3.05;;;;;;;6.24;69.28;103182.50;5009532;28;20064;-76
2021/04/15 08:00:51;;;;;;;8.45;3.40;;;;;;;6.47;69.25;103184.22;5046130;28;20045;-77
2021/04/15 08:03:35;;;;;;;5.32;2.67;;;;;;;6.51;65.83;103184.94;5059848;28;20051;-76
2021/04/15 08:06:17;;;;;;;5.45;2.40;;;;;;;6.42;65.05;103183.53;5044917;28;20134;-75
2021/04/15 08:09:16;;;;;;;6.55;2.67;;;;;;;6.56;64.66;103183.00;5045550;28;20048;-75
2021/04/15 08:12:00;;;;;;;5.22;2.35;;;;;;;6.77;64.09;103184.75;5039249;28;20041;-75
2021/04/15 08:14:33;;;;;;;4.47;2.08;;;;;;;7.00;63.78;103189.03;5045169;28;20179;-78
2021/04/15 08:17:29;;;;;;;6.65;1.98;;;;;;;7.05;61.61;103183.63;5049275;28;20810;-76
2021/04/15 08:20:14;;;;;;;4.05;1.67;;;;;;;7.16;60.94;103178.81;5060488;28;20053;-78
2021/04/15 08:23:16;;;;;;;4.53;1.98;;;;;;;7.26;57.98;103179.25;5059313;28;20394;-78
2021/04/15 08:26:03;;;;;;;12.30;1.77;;;;;;;7.22;57.37;103175.94;5037012;28;20047;-76
2021/04/15 08:29:05;;;;;;;4.10;1.40;;;;;;;7.45;55.72;103178.47;5042127;28;20374;-75
2021/04/15 08:31:47;;;;;;;4.82;2.00;;;;;;;7.49;56.14;103180.88;5015963;28;20517;-78
2021/04/15 08:34:22;;;;;;;3.73;1.70;;;;;;;7.51;55.85;103178.22;5046125;28;20053;-76
2021/04/15 08:37:02;;;;;;;4.10;1.90;;;;;;;7.79;56.92;103181.28;5044684;28;20044;-78
2021/04/15 08:39:59;;;;;;;3.22;1.52;;;;;;;8.03;53.66;103170.66;5014940;28;20083;-77
2021/04/15 08:42:39;;;;;;;5.43;1.70;;;;;;;7.75;52.12;103177.13;5045741;28;20035;-76
2021/04/15 08:45:17;;;;;;;1.80;1.30;;;;;;;7.94;51.10;103177.13;5049839;28;20037;-75
2021/04/15 08:48:13;;;;;;;2.55;1.50;;;;;;;7.97;50.35;103174.41;5064955;28;20413;-76
2021/04/15 08:50:54;;;;;;;4.47;1.17;;;;;;;8.10;51.78;103179.03;5014360;28;20084;-78
2021/04/15 08:53:38;;;;;;;4.55;1.08;;;;;;;8.13;49.87;103171.91;5048133;28;20059;-76
2021/04/15 08:56:09;;;;;;;2.47;1.13;;;;;;;8.16;46.87;103173.56;5032044;28;20092;-77
2021/04/15 08:58:56;;;;;;;2.42;1.08;;;;;;;8.07;45.17;103177.44;5014298;28;20860;-78
2021/04/15 09:01:48;;;;;;;5.90;1.08;;;;;;;7.98;45.33;103165.63;5013020;28;20067;-76
2021/04/15 09:04:23;;;;;;;1.35;1.00;;;;;;;8.26;47.01;103171.34;5043599;28;20056;-75
2021/04/15 09:07:14;;;;;;;0.85;0.82;;;;;;;8.56;45.98;103169.09;5047544;28;20056;-77
2021/04/15 09:10:03;;;;;;;2.05;0.70;;;;;;;8.42;44.31;103174.13;5028782;28;20048;-77
2021/04/15 09:12:58;;;;;;;2.47;0.98;;;;;;;8.48;45.87;103166.00;5011968;28;20490;-76
2021/04/15 09:15:50;;;;;;;6.93;1.10;;;;;;;8.65;45.61;103173.03;5014192;28;20499;-76
2021/04/15 09:18:48;;;;;;;1.75;0.80;;;;;;;8.74;43.25;103162.13;5030292;28;20053;-76
2021/04/15 09:21:30;;;;;;;1.10;0.52;;;;;;;8.79;36.65;103165.34;4956602;28;20137;-77
2021/04/15 09:24:15;;;;;;;0.88;0.77;;;;;;;8.89;38.28;103163.97;5014756;28;20044;-78
2021/04/15 09:27:00;;;;;;;4.60;1.00;;;;;;;8.74;39.40;103165.56;5022513;28;20037;-76
2021/04/15 09:29:46;;;;;;;0.80;0.60;;;;;;;8.98;39.38;103153.97;5046727;28;20295;-77
2021/04/15 09:32:41;;;;;;;1.95;0.68;;;;;;;8.94;39.37;103158.50;5025640;28;20099;-77
2021/04/15 09:35:13;;;;;;;4.20;1.00;;;;;;;9.15;40.27;103156.56;5046920;28;20091;-76
2021/04/15 09:37:53;;;;;;;2.20;0.70;;;;;;;9.48;38.65;103153.97;5043875;28;20072;-76
2021/04/15 09:40:40;;;;;;;4.95;0.93;;;;;;;9.15;39.12;103153.94;5042436;28;20739;-76
2021/04/15 09:43:43;;;;;;;5.18;1.00;;;;;;;9.14;39.70;103155.72;5039577;28;20051;-77
2021/04/15 09:46:28;;;;;;;1.30;0.50;;;;;;;9.45;42.41;103148.91;5016596;28;20045;-77
2021/04/15 09:49:13;;;;;;;2.13;1.02;;;;;;;9.81;36.19;103153.09;5016392;28;20067;-75
2021/04/15 09:52:17;;;;;;;0.60;0.60;;;;;;;9.47;37.04;103149.66;5046061;28;20067;-75
2021/04/15 09:54:50;;;;;;;1.38;0.70;;;;;;;9.12;39.18;103147.09;5030619;28;20048;-76
2021/04/15 09:57:34;;;;;;;5.07;0.70;;;;;;;8.91;39.25;103135.09;4999149;28;20080;-76
2021/04/15 10:00:27;;;;;;;1.98;0.90;;;;;;;8.80;43.31;103146.09;5046902;28;20049;-76
2021/04/15 10:03:01;;;;;;;1.52;0.90;;;;;;;8.92;42.03;103135.00;5026769;28;20037;-76
2021/04/15 10:05:46;;;;;;;2.13;0.90;;;;;;;8.58;37.92;103138.47;5012414;28;20048;-75
2021/04/15 10:08:23;;;;;;;1.13;0.50;;;;;;;8.49;40.15;103144.13;5046774;28;20410;-76
2021/04/15 10:10:59;;;;;;;1.02;0.70;;;;;;;8.64;41.76;103142.53;5011604;28;20111;-76
2021/04/15 10:13:44;;;;;;;0.85;0.60;;;;;;;8.95;39.32;103137.47;5043695;28;20068;-75
2021/04/15 10:16:22;;;;;;;2.15;0.80;;;;;;;9.64;38.63;103135.66;5048709;28;20041;-75
2021/04/15 10:19:22;;;;;;;1.17;0.40;;;;;;;9.99;35.54;103132.94;5042508;28;20103;-76
2021/04/15 10:22:10;;;;;;;1.40;0.60;;;;;;;9.55;37.86;103134.41;4991785;28;20045;-79
2021/04/15 10:24:43;;;;;;;1.50;0.60;;;;;;;9.33;38.74;103139.06;5033579;28;20045;-75
2021/04/15 10:27:28;;;;;;;;;;;;;;;9.08;37.80;103136.84;5031887;28;20049;-76
2021/04/15 10:30:12;;;;;;;2.58;0.80;;;;;;;8.64;40.50;103138.16;5009603;28;20208;-77
2021/04/15 10:33:08;;;;;;;0.88;0.63;;;;;;;8.51;39.96;103129.22;5028684;28;20154;-75
2021/04/15 10:36:19;;;;;;;1.40;0.80;;;;;;;8.44;40.33;103130.41;5046699;28;20690;-77
2021/04/15 10:38:59;;;;;;;1.92;0.80;;;;;;;8.48;40.42;103130.22;5046724;28;20052;-77
2021/04/15 10:41:40;;;;;;;6.03;0.60;;;;;;;8.74;41.12;103128.09;5049229;28;20098;-78
2021/04/15 10:44:30;;;;;;;2.33;0.50;;;;;;;8.76;40.53;103132.31;5063011;28;21366;-77
2021/04/15 10:47:21;;;;;;;0.57;0.47;;;;;;;8.79;40.64;103130.47;5013297;28;20045;-77
2021/04/15 10:50:01;;;;;;;2.47;0.57;;;;;;;8.66;39.26;103127.63;5030973;28;20037;-76
2021/04/15 10:52:38;;;;;;;1.83;0.82;;;;;;;8.62;40.13;103126.06;5050979;28;20033;-76
2021/04/15 10:55:16;;;;;;;2.42;0.60;;;;;;;9.20;41.12;103123.13;5012650;28;20091;-76
2021/04/15 10:57:42;;;;;;;0.70;0.50;;;;;;;10.06;36.11;103115.94;5045543;28;20632;-76
2021/04/15 11:00:32;;;;;;;1.02;0.52;;;;;;;9.81;34.94;103118.19;5045632;28;20072;-75
2021/04/15 11:03:15;;;;;;;3.67;0.50;;;;;;;9.51;35.19;103119.78;5006161;28;20802;-77
2021/04/15 11:05:43;;;;;;;2.10;0.50;;;;;;;9.21;37.36;103118.75;5010545;28;20140;-78
2021/04/15 11:08:18;;;;;;;1.63;0.50;;;;;;;9.26;37.54;103121.97;5012671;28;20041;-77
2021/04/15 11:10:44;;;;;;;1.88;0.80;;;;;;;9.11;36.94;103118.38;5013767;28;20053;-75
2021/04/15 11:13:23;;;;;;;0.77;0.50;;;;;;;8.94;37.48;103117.47;5013721;28;20413;-76
2021/04/15 11:15:59;;;;;;;2.85;0.60;;;;;;;8.84;37.50;103121.47;5042906;28;20060;-78
2021/04/15 11:18:32;;;;;;;0.82;0.40;;;;;;;8.75;36.45;103114.91;5037208;28;20045;-76
2021/04/15 11:21:24;;;;;;;1.35;0.50;;;;;;;8.56;38.24;103117.59;5027548;28;20036;-77
2021/04/15 11:23:53;;;;;;;0.77;0.50;;;;;;;8.63;38.75;103118.16;5028163;28;20203;-76
2021/04/15 11:26:24;;;;;;;2.47;0.60;;;;;;;8.62;36.55;103111.22;5044202;28;20498;-75
2021/04/15 11:28:53;;;;;;;2.25;0.47;;;;;;;8.64;37.69;103113.75;5047012;28;20051;-78
2021/04/15 11:31:40;;;;;;;2.55;0.68;;;;;;;8.63;36.46;103114.72;5027690;28;20040;-74
2021/04/15 11:34:14;;;;;;;1.40;0.50;;;;;;;8.53;35.26;103111.66;5012058;28;20045;-77
2021/04/15 11:37:09;;;;;;;2.40;0.50;;;;;;;8.52;34.11;103108.22;5044202;28;20053;-75
2021/04/15 11:39:37;;;;;;;4.53;0.65;;;;;;;8.57;34.78;103113.25;5044106;28;20041;-75
2021/04/15 11:42:07;;;;;;;2.03;0.70;;;;;;;8.63;37.12;103112.09;5043836;28;20037;-76
2021/04/15 11:44:41;;;;;;;1.65;0.80;;;;;;;8.71;37.14;103112.53;5028227;28;20040;-77
2021/04/15 11:47:21;;;;;;;0.95;0.50;;;;;;;8.87;35.85;103112.59;5040427;28;20040;-76
2021/04/15 11:49:48;;;;;;;5.03;1.00;;;;;;;8.90;37.04;103109.84;5064354;28;20072;-76
2021/04/15 11:52:16;;;;;;;5.45;0.70;;;;;;;9.05;37.42;103110.84;5033827;28;20417;-76
2021/04/15 11:55:18;;;;;;;3.50;0.55;;;;;;;8.95;37.97;103102.63;5048958;28;20044;-75
2021/04/15 11:57:55;;;;;;;1.38;0.60;;;;;;;9.19;36.76;103104.88;5042634;28;20098;-76
2021/04/15 12:00:26;;;;;;;2.17;0.60;;;;;;;9.40;36.98;103106.41;5022867;28;20049;-78
2021/04/15 12:02:54;;;;;;;0.93;0.70;;;;;;;9.56;36.38;103098.56;5027909;28;20033;-78
2021/04/15 12:05:42;;;;;;;2.17;0.70;;;;;;;9.81;35.96;103098.06;5028058;28;20132;-77
2021/04/15 12:08:28;;;;;;;5.22;0.60;;;;;;;9.82;34.57;103098.94;5008399;28;20403;-77
2021/04/15 12:11:08;;;;;;;;;;;;;;;9.90;35.77;103100.19;5000839;28;20110;-77
2021/04/15 12:13:40;;;;;;;1.45;0.77;;;;;;;9.49;36.46;103092.81;5064102;28;19923;-76
2021/04/15 12:16:28;;;;;;;1.52;0.50;;;;;;;9.08;36.94;103103.69;5065028;28;20468;-75
2021/04/15 12:19:01;;;;;;;2.17;0.68;;;;;;;8.90;39.24;103092.38;5032126;28;20049;-75
2021/04/15 12:21:32;;;;;;;1.02;0.77;;;;;;;8.80;39.27;103101.63;5032043;28;20048;-76